TAF KLAR
KLAR 270520Z 2706/2806 25013KT P6SM SCT200 FM271000 24008KT P6SM SCT200 FM271500 32009KT P6SM SCT200 FM280000 21008KT P6SM SKC=
METAR KLAR
WC KLAR
WS KLAR
WV KLAR